Time;durP1;ratioP1;P1;durP2;ratioP2;P2;SDS_P1;SDS_P2;PMS_P1;PMS_P2;Temp;Humidity;BMP_temperature;BMP_pressure;BME280_temperature;BME280_humidity;BME280_pressure;Samples;Min_cycle;Max_cycle;Signal;HPM_P1;HPM_P2
2020/12/04 00:02:06;;;;;;;2.42;1.70;;;4.80;99.90;;;;;;4953548;28;20606;-76
2020/12/04 00:04:32;;;;;;;3.30;2.35;;;4.80;99.90;;;;;;4952648;28;20207;-76
2020/12/04 00:06:59;;;;;;;1.92;1.83;;;4.70;99.90;;;;;;4952695;28;20554;-76
2020/12/04 00:09:25;;;;;;;1.95;1.75;;;4.70;99.90;;;;;;4953337;28;20252;-76
2020/12/04 00:11:51;;;;;;;2.17;1.77;;;4.70;99.90;;;;;;4953985;28;20688;-76
2020/12/04 00:14:16;;;;;;;2.77;1.80;;;4.70;99.90;;;;;;4966445;28;20591;-77
2020/12/04 00:16:42;;;;;;;1.50;1.40;;;4.80;99.90;;;;;;4951595;29;20181;-76
2020/12/04 00:19:08;;;;;;;3.10;2.10;;;4.70;99.90;;;;;;4952941;28;20686;-76
2020/12/04 00:21:33;;;;;;;2.00;1.83;;;4.80;99.90;;;;;;4953535;28;20200;-76
2020/12/04 00:23:59;;;;;;;1.90;1.60;;;4.70;99.90;;;;;;4952791;28;20654;-77
2020/12/04 00:26:25;;;;;;;2.50;1.40;;;4.70;99.90;;;;;;4951527;29;20164;-77
2020/12/04 00:28:51;;;;;;;3.07;1.70;;;4.80;99.90;;;;;;4953037;28;20399;-77
2020/12/04 00:31:16;;;;;;;1.60;1.50;;;4.70;99.90;;;;;;4935918;29;20629;-77
2020/12/04 00:33:43;;;;;;;1.80;1.23;;;4.70;99.90;;;;;;4953422;29;20447;-77
2020/12/04 00:36:09;;;;;;;1.08;0.98;;;4.70;99.90;;;;;;4951139;29;20322;-77
2020/12/04 00:38:35;;;;;;;1.70;1.38;;;4.80;99.90;;;;;;4953474;28;20195;-77
2020/12/04 00:41:02;;;;;;;1.33;1.10;;;4.70;99.90;;;;;;4952355;28;20323;-77
2020/12/04 00:43:27;;;;;;;1.98;1.48;;;4.80;99.90;;;;;;4953369;29;20182;-77
2020/12/04 00:45:53;;;;;;;1.73;1.27;;;4.80;99.90;;;;;;4961541;28;20640;-77
2020/12/04 00:48:18;;;;;;;1.17;0.90;;;4.80;99.90;;;;;;4952591;28;20210;-77
2020/12/04 00:50:44;;;;;;;1.40;1.30;;;4.80;99.90;;;;;;4967493;28;20215;-77
2020/12/04 00:53:10;;;;;;;1.30;1.20;;;4.80;99.90;;;;;;4953452;29;20247;-77
2020/12/04 00:55:35;;;;;;;1.47;1.03;;;4.80;99.90;;;;;;4952244;28;20278;-77
2020/12/04 00:58:01;;;;;;;0.87;0.83;;;4.80;99.90;;;;;;4951894;29;20172;-77
2020/12/04 01:00:27;;;;;;;1.23;1.13;;;4.80;99.90;;;;;;4952497;28;20211;-77
2020/12/04 01:02:53;;;;;;;1.40;1.03;;;4.70;99.90;;;;;;4953156;29;20466;-77
2020/12/04 01:05:18;;;;;;;1.60;0.90;;;4.70;99.90;;;;;;4951709;28;20250;-77
2020/12/04 01:07:44;;;;;;;1.90;0.97;;;4.80;99.90;;;;;;4952433;29;20203;-77
2020/12/04 01:10:10;;;;;;;1.43;1.00;;;4.70;99.90;;;;;;4952680;28;20777;-77
2020/12/04 01:12:35;;;;;;;2.53;1.20;;;4.70;99.90;;;;;;4952879;28;20164;-77
2020/12/04 01:15:01;;;;;;;1.90;0.80;;;4.70;99.90;;;;;;4934328;29;20491;-77
2020/12/04 01:17:27;;;;;;;1.43;0.77;;;4.70;99.90;;;;;;4951835;29;20176;-77
2020/12/04 01:19:54;;;;;;;1.30;0.80;;;4.70;99.90;;;;;;4955086;28;20625;-77
2020/12/04 01:22:20;;;;;;;0.90;0.70;;;4.70;99.90;;;;;;4956632;29;20474;-77
2020/12/04 01:24:45;;;;;;;1.02;0.90;;;4.70;99.90;;;;;;4956134;28;20226;-78
2020/12/04 01:27:11;;;;;;;1.13;0.80;;;4.70;99.90;;;;;;4969159;28;20180;-77
2020/12/04 01:29:37;;;;;;;1.30;0.97;;;4.70;99.90;;;;;;4956076;28;20222;-78
2020/12/04 01:32:03;;;;;;;2.00;1.33;;;4.70;99.90;;;;;;4956344;28;20250;-77
2020/12/04 01:34:28;;;;;;;1.20;1.10;;;4.70;99.90;;;;;;4955975;28;20808;-77
2020/12/04 01:36:54;;;;;;;1.37;1.03;;;4.70;99.90;;;;;;4954641;29;20793;-77
2020/12/04 01:39:20;;;;;;;0.73;0.60;;;4.70;99.90;;;;;;4970628;28;20294;-77
2020/12/04 01:41:46;;;;;;;1.70;0.90;;;4.60;99.90;;;;;;4956020;28;20237;-77
2020/12/04 01:44:11;;;;;;;0.67;0.60;;;4.60;99.90;;;;;;4954728;28;20216;-78
2020/12/04 01:46:37;;;;;;;1.57;0.90;;;4.60;99.90;;;;;;4963891;28;20534;-77
2020/12/04 01:49:03;;;;;;;1.13;0.80;;;4.60;99.90;;;;;;4955610;28;20176;-77
2020/12/04 01:51:32;;;;;;;0.90;0.80;;;4.50;99.90;;;;;;4956130;28;20436;-77
2020/12/04 01:53:58;;;;;;;0.82;0.75;;;4.60;99.90;;;;;;4955313;28;20231;-78
2020/12/04 01:56:24;;;;;;;1.10;1.00;;;4.50;99.90;;;;;;4953540;29;20176;-77
2020/12/04 01:58:49;;;;;;;1.47;0.70;;;4.50;99.90;;;;;;4954270;28;20664;-78
2020/12/04 02:01:17;;;;;;;1.73;0.70;;;4.50;99.90;;;;;;4955815;28;20216;-77
2020/12/04 02:03:43;;;;;;;1.00;0.80;;;4.50;99.90;;;;;;4954905;29;20615;-78
2020/12/04 02:06:57;;;;;;;1.13;0.80;;;4.40;99.90;;;;;;4954366;29;20247;-77
2020/12/04 02:09:44;;;;;;;1.83;0.82;;;4.50;99.90;;;;;;4953131;28;20283;-76
2020/12/04 02:12:15;;;;;;;0.63;0.50;;;4.40;99.90;;;;;;4955884;29;20208;-77
2020/12/04 02:14:43;;;;;;;0.68;0.63;;;4.40;99.90;;;;;;4954385;28;20231;-76
2020/12/04 02:17:09;;;;;;;1.00;0.63;;;4.40;99.90;;;;;;4929558;29;20247;-76
2020/12/04 02:19:39;;;;;;;1.42;0.80;;;4.40;99.90;;;;;;4955069;28;20263;-76
2020/12/04 02:22:05;;;;;;;1.90;1.42;;;4.40;99.90;;;;;;4955667;28;20196;-77
2020/12/04 02:24:32;;;;;;;4.30;2.90;;;4.40;99.90;;;;;;4954004;28;20254;-76
2020/12/04 02:26:58;;;;;;;3.47;2.90;;;4.30;99.90;;;;;;4954230;29;20182;-77
2020/12/04 02:29:25;;;;;;;4.73;3.87;;;4.20;99.90;;;;;;4954502;28;20207;-77
2020/12/04 02:31:51;;;;;;;5.15;4.00;;;4.20;99.90;;;;;;4954583;28;20866;-76
2020/12/04 02:34:17;;;;;;;6.82;3.85;;;4.10;99.90;;;;;;4954212;28;20690;-77
2020/12/04 02:36:43;;;;;;;6.77;4.67;;;4.00;99.90;;;;;;4954640;29;20199;-76
2020/12/04 02:39:08;;;;;;;4.93;4.00;;;4.00;99.90;;;;;;4969758;28;20216;-77
2020/12/04 02:41:34;;;;;;;5.67;4.13;;;3.90;99.90;;;;;;4954858;28;20290;-76
2020/12/04 02:44:01;;;;;;;6.03;4.50;;;3.90;99.90;;;;;;4961168;28;20199;-77
2020/12/04 02:46:27;;;;;;;5.60;4.40;;;3.90;99.90;;;;;;4953600;29;20527;-76
2020/12/04 02:48:53;;;;;;;5.57;4.57;;;3.90;99.90;;;;;;4954698;28;20466;-77
2020/12/04 02:51:19;;;;;;;8.45;5.80;;;3.80;99.90;;;;;;4954990;28;20516;-77
2020/12/04 02:53:45;;;;;;;5.23;3.90;;;3.80;99.90;;;;;;4954049;28;20191;-77
2020/12/04 02:56:16;;;;;;;8.10;4.60;;;3.80;99.90;;;;;;4953063;29;20375;-76
2020/12/04 02:58:42;;;;;;;4.55;3.80;;;3.80;99.90;;;;;;4954922;29;20191;-76
2020/12/04 03:01:08;;;;;;;4.30;3.90;;;3.80;99.90;;;;;;4952105;28;20238;-76
2020/12/04 03:03:33;;;;;;;5.00;4.50;;;3.80;99.90;;;;;;4955021;29;20172;-76
2020/12/04 03:05:59;;;;;;;6.23;4.73;;;3.80;99.90;;;;;;4952329;28;20603;-76
2020/12/04 03:08:25;;;;;;;4.77;4.03;;;3.90;99.90;;;;;;4954947;28;20531;-76
2020/12/04 03:10:52;;;;;;;4.20;3.80;;;3.80;99.90;;;;;;4954118;28;20208;-76
2020/12/04 03:13:18;;;;;;;5.63;3.92;;;3.80;99.90;;;;;;4953973;29;20176;-76
2020/12/04 03:15:43;;;;;;;3.93;3.53;;;3.90;99.90;;;;;;4953540;28;20243;-77
2020/12/04 03:18:09;;;;;;;5.60;4.40;;;3.90;99.90;;;;;;4954164;29;20273;-76
2020/12/04 03:20:35;;;;;;;3.50;3.20;;;3.90;99.90;;;;;;4954300;28;20219;-77
2020/12/04 03:23:00;;;;;;;3.83;3.40;;;3.90;99.90;;;;;;4954333;29;20540;-76
2020/12/04 03:25:26;;;;;;;4.13;3.70;;;3.90;99.90;;;;;;4951807;28;20718;-77
2020/12/04 03:27:52;;;;;;;5.60;3.80;;;4.00;99.90;;;;;;4953779;29;20266;-76
2020/12/04 03:30:17;;;;;;;5.20;3.90;;;4.00;99.90;;;;;;4954017;28;20231;-77
2020/12/04 03:32:43;;;;;;;3.90;3.13;;;3.90;99.90;;;;;;4954579;29;20267;-76
2020/12/04 03:35:09;;;;;;;4.30;2.93;;;3.90;99.90;;;;;;4952448;28;20307;-76
2020/12/04 03:37:34;;;;;;;5.03;4.40;;;4.00;99.90;;;;;;4953140;29;20207;-76
2020/12/04 03:40:00;;;;;;;5.80;4.60;;;4.00;99.90;;;;;;4953737;28;20212;-76
2020/12/04 03:42:25;;;;;;;4.53;3.50;;;4.00;99.90;;;;;;4936634;29;20227;-76
2020/12/04 03:44:51;;;;;;;5.10;3.60;;;3.90;99.90;;;;;;4952447;28;20246;-77
2020/12/04 03:47:17;;;;;;;3.63;2.87;;;4.00;99.90;;;;;;4968054;28;20180;-77
2020/12/04 03:49:42;;;;;;;3.43;2.67;;;4.00;99.90;;;;;;4953598;28;20302;-77
2020/12/04 03:52:08;;;;;;;3.90;2.97;;;4.00;99.90;;;;;;4953513;28;20622;-76
2020/12/04 03:54:34;;;;;;;4.33;3.13;;;4.00;99.90;;;;;;4952494;28;20314;-76
2020/12/04 03:56:59;;;;;;;3.80;3.13;;;4.00;99.90;;;;;;4952546;29;20188;-77
2020/12/04 03:59:25;;;;;;;4.50;3.10;;;4.00;99.90;;;;;;4953457;28;20219;-76
2020/12/04 04:01:51;;;;;;;3.10;2.90;;;4.10;99.90;;;;;;4953714;28;20207;-76
2020/12/04 04:04:16;;;;;;;3.67;3.00;;;4.00;99.90;;;;;;4951837;28;20215;-76
2020/12/04 04:06:42;;;;;;;2.53;2.33;;;4.10;99.90;;;;;;4952583;29;20187;-77
2020/12/04 04:09:07;;;;;;;2.90;2.43;;;4.10;99.90;;;;;;4952727;28;20216;-77
2020/12/04 04:11:33;;;;;;;2.97;2.33;;;4.10;99.90;;;;;;4953632;28;20199;-76
2020/12/04 04:13:59;;;;;;;3.83;2.50;;;4.10;99.90;;;;;;4952199;29;20262;-77
2020/12/04 04:16:24;;;;;;;2.90;2.60;;;4.10;99.90;;;;;;4951721;29;20175;-77
2020/12/04 04:18:50;;;;;;;3.73;2.40;;;4.20;99.90;;;;;;4952862;28;20182;-77
2020/12/04 04:21:16;;;;;;;6.13;3.40;;;4.10;99.90;;;;;;4951928;29;20262;-77
2020/12/04 04:23:41;;;;;;;2.67;2.40;;;4.20;99.90;;;;;;4953708;29;20180;-77
2020/12/04 04:26:08;;;;;;;3.37;3.00;;;4.20;99.90;;;;;;4950764;28;20238;-77
2020/12/04 04:28:33;;;;;;;4.70;2.95;;;4.20;99.90;;;;;;4953491;29;20289;-76
2020/12/04 04:30:59;;;;;;;3.17;2.50;;;4.20;99.90;;;;;;4952897;28;20324;-77
2020/12/04 04:33:25;;;;;;;3.00;2.20;;;4.20;99.90;;;;;;4952804;28;20195;-77
2020/12/04 04:35:51;;;;;;;2.80;2.42;;;4.20;99.90;;;;;;4950871;28;20222;-77
2020/12/04 04:38:17;;;;;;;3.60;2.60;;;4.20;99.90;;;;;;4965837;28;20180;-76
2020/12/04 04:40:43;;;;;;;2.60;2.20;;;4.20;99.90;;;;;;4950789;28;20469;-76
2020/12/04 04:43:14;;;;;;;2.87;2.27;;;4.20;99.90;;;;;;4951030;29;20720;-76
2020/12/04 04:45:43;;;;;;;3.25;1.95;;;4.30;99.90;;;;;;4950176;28;20822;-76
2020/12/04 04:48:17;;;;;;;3.28;1.50;;;4.30;99.90;;;;;;4964972;28;20171;-76
2020/12/04 04:50:46;;;;;;;2.50;1.85;;;4.30;99.90;;;;;;4965543;28;20404;-77
2020/12/04 04:53:13;;;;;;;1.65;1.55;;;4.40;99.90;;;;;;4951658;28;20535;-77
2020/12/04 04:55:42;;;;;;;2.20;1.63;;;4.40;99.90;;;;;;4968289;28;20219;-77
2020/12/04 04:58:08;;;;;;;3.22;1.90;;;4.40;99.90;;;;;;4954211;28;20180;-77
2020/12/04 05:00:34;;;;;;;1.63;1.50;;;4.40;99.90;;;;;;4954552;28;20223;-76
2020/12/04 05:02:59;;;;;;;2.30;1.77;;;4.50;99.90;;;;;;4954976;29;20783;-76
2020/12/04 05:05:45;;;;;;;1.33;1.07;;;4.40;99.90;;;;;;4953377;28;20214;-77
2020/12/04 05:08:20;;;;;;;1.10;1.00;;;4.50;99.90;;;;;;4954639;29;20435;-77
2020/12/04 05:10:47;;;;;;;1.05;0.95;;;4.50;99.90;;;;;;4954499;28;20556;-78
2020/12/04 05:13:17;;;;;;;1.00;0.57;;;4.50;99.90;;;;;;4954511;29;20587;-78
2020/12/04 05:15:43;;;;;;;0.90;0.70;;;4.50;99.90;;;;;;4953471;28;20223;-77
2020/12/04 05:18:20;;;;;;;0.50;0.40;;;4.60;99.90;;;;;;4953889;29;20267;-77
2020/12/04 05:20:52;;;;;;;1.02;0.55;;;4.70;99.90;;;;;;4954203;28;20611;-77
2020/12/04 05:23:18;;;;;;;0.68;0.43;;;4.70;99.90;;;;;;4954019;29;20819;-76
2020/12/04 05:25:46;;;;;;;0.65;0.50;;;4.70;99.90;;;;;;4953613;28;20228;-77
2020/12/04 05:28:17;;;;;;;0.98;0.65;;;4.70;99.90;;;;;;4952692;29;20184;-77
2020/12/04 05:30:49;;;;;;;0.70;0.40;;;4.80;99.90;;;;;;4954089;28;20326;-78
2020/12/04 05:33:15;;;;;;;0.82;0.60;;;4.80;99.90;;;;;;4954390;29;20195;-78
2020/12/04 05:35:41;;;;;;;1.27;1.17;;;4.80;99.90;;;;;;4952891;28;20227;-77
2020/12/04 05:38:12;;;;;;;3.15;0.90;;;4.90;99.90;;;;;;4953174;29;20180;-77
2020/12/04 05:40:43;;;;;;;0.70;0.45;;;4.90;99.90;;;;;;4953662;28;20212;-77
2020/12/04 05:43:10;;;;;;;1.63;0.68;;;5.00;99.90;;;;;;4954166;29;20184;-76
2020/12/04 05:45:36;;;;;;;0.77;0.50;;;5.00;99.90;;;;;;4952853;28;20932;-76
2020/12/04 05:48:10;;;;;;;0.98;0.70;;;5.00;99.90;;;;;;4967998;28;20242;-77
2020/12/04 05:50:37;;;;;;;0.88;0.60;;;5.00;99.90;;;;;;4953266;28;20306;-76
2020/12/04 05:53:03;;;;;;;2.00;0.77;;;5.00;99.90;;;;;;4954318;29;20704;-77
2020/12/04 05:55:28;;;;;;;0.70;0.53;;;5.00;99.90;;;;;;4935335;29;20223;-77
2020/12/04 05:57:58;;;;;;;0.80;0.50;;;5.10;99.90;;;;;;4952781;29;20215;-78
2020/12/04 06:00:24;;;;;;;0.70;0.50;;;5.10;99.90;;;;;;4953435;28;20258;-78
2020/12/04 06:02:57;;;;;;;0.70;0.50;;;5.20;99.90;;;;;;4968658;28;20195;-77
2020/12/04 06:05:25;;;;;;;0.80;0.52;;;5.20;99.90;;;;;;4952258;28;20698;-77
2020/12/04 06:08:00;;;;;;;1.10;0.52;;;5.30;99.90;;;;;;4953305;29;20585;-77
2020/12/04 06:10:30;;;;;;;1.00;0.77;;;5.40;99.90;;;;;;4946611;28;20207;-78
2020/12/04 06:12:56;;;;;;;0.90;0.40;;;5.40;99.90;;;;;;4954054;29;20180;-77
2020/12/04 06:15:28;;;;;;;1.05;0.65;;;5.60;99.90;;;;;;4952138;28;20228;-76
2020/12/04 06:18:04;;;;;;;1.73;0.57;;;5.60;99.90;;;;;;4952600;29;20594;-76
2020/12/04 06:20:41;;;;;;;1.48;0.70;;;5.70;99.90;;;;;;4952877;28;20228;-76
2020/12/04 06:23:12;;;;;;;0.88;0.50;;;5.90;99.90;;;;;;4953718;29;20176;-77
2020/12/04 06:26:05;;;;;;;1.27;0.80;;;6.10;99.90;;;;;;4952072;28;20208;-77
2020/12/04 06:28:36;;;;;;;0.60;0.50;;;6.20;99.90;;;;;;4944889;29;20184;-76
2020/12/04 06:31:03;;;;;;;1.65;0.80;;;6.10;99.90;;;;;;4952723;28;20212;-76
2020/12/04 06:33:30;;;;;;;1.10;0.73;;;6.10;99.90;;;;;;4953392;29;20239;-76
2020/12/04 06:35:56;;;;;;;2.00;0.60;;;6.20;99.90;;;;;;4951502;28;20567;-76
2020/12/04 06:38:39;;;;;;;0.60;0.40;;;6.30;99.90;;;;;;4969352;28;20176;-76
2020/12/04 06:41:25;;;;;;;0.90;0.70;;;6.40;99.90;;;;;;4954085;28;20310;-76
2020/12/04 06:43:54;;;;;;;1.80;0.57;;;6.50;99.90;;;;;;4955428;29;20172;-76
2020/12/04 06:46:36;;;;;;;0.77;0.65;;;6.50;99.90;;;;;;4954169;29;20191;-76
2020/12/04 06:49:08;;;;;;;0.85;0.60;;;6.70;99.90;;;;;;4954522;28;20262;-77
2020/12/04 06:51:34;;;;;;;0.70;0.60;;;6.70;99.90;;;;;;4955293;28;20184;-77
2020/12/04 06:54:00;;;;;;;1.20;0.60;;;6.70;99.90;;;;;;4954224;28;20647;-76
2020/12/04 06:56:26;;;;;;;1.40;0.70;;;6.70;99.90;;;;;;4954078;28;20179;-76
2020/12/04 06:58:52;;;;;;;0.70;0.60;;;6.70;99.90;;;;;;4954943;29;20430;-77
2020/12/04 07:01:18;;;;;;;0.57;0.50;;;6.80;99.90;;;;;;4955018;28;20180;-77
2020/12/04 07:03:45;;;;;;;0.93;0.60;;;6.70;99.90;;;;;;4953122;28;20643;-76
2020/12/04 07:06:11;;;;;;;0.88;0.40;;;6.80;99.90;;;;;;4952667;29;20255;-76
2020/12/04 07:08:53;;;;;;;1.73;0.60;;;6.70;99.90;;;;;;4954829;29;20255;-76
2020/12/04 07:11:19;;;;;;;0.70;0.50;;;6.70;99.90;;;;;;4954468;28;20764;-77
2020/12/04 07:13:45;;;;;;;0.77;0.50;;;6.70;99.90;;;;;;4954258;29;20535;-77
2020/12/04 07:16:10;;;;;;;1.67;0.70;;;6.70;99.90;;;;;;4935067;29;20204;-76
2020/12/04 07:18:37;;;;;;;1.17;0.70;;;6.70;99.90;;;;;;4954824;29;20516;-77
2020/12/04 07:21:03;;;;;;;1.10;0.85;;;6.80;99.90;;;;;;4978896;23;20310;-77
2020/12/04 07:23:29;;;;;;;0.70;0.60;;;6.80;99.90;;;;;;4956097;28;20606;-77
2020/12/04 07:25:55;;;;;;;1.47;0.40;;;6.80;99.90;;;;;;4952651;28;20203;-77
2020/12/04 07:28:21;;;;;;;1.15;0.70;;;6.70;99.90;;;;;;4966057;28;20226;-77
2020/12/04 07:30:47;;;;;;;1.10;0.63;;;6.60;99.90;;;;;;4973042;28;20211;-77
2020/12/04 07:33:13;;;;;;;0.80;0.60;;;6.60;99.90;;;;;;4973429;28;20198;-77
2020/12/04 07:35:38;;;;;;;0.60;0.40;;;6.50;99.90;;;;;;4969960;28;20237;-77
2020/12/04 07:38:07;;;;;;;3.90;0.60;;;6.50;99.90;;;;;;4969075;28;20940;-77
2020/12/04 07:40:33;;;;;;;0.88;0.60;;;6.50;99.90;;;;;;4955581;28;20219;-77
2020/12/04 07:43:03;;;;;;;1.10;0.80;;;6.40;99.90;;;;;;4971842;28;20168;-77
2020/12/04 07:45:29;;;;;;;2.00;0.70;;;6.50;99.90;;;;;;4971754;28;20630;-77
2020/12/04 07:47:54;;;;;;;0.87;0.70;;;6.50;99.90;;;;;;4967352;28;20278;-76
2020/12/04 07:50:22;;;;;;;2.80;1.60;;;6.50;99.90;;;;;;4972669;28;20215;-76
2020/12/04 07:52:51;;;;;;;1.40;1.10;;;6.60;99.90;;;;;;4973185;28;20179;-76
2020/12/04 07:55:22;;;;;;;1.55;1.00;;;6.50;99.90;;;;;;4967292;28;20586;-77
2020/12/04 07:58:01;;;;;;;2.72;1.08;;;6.60;99.90;;;;;;4961574;28;20542;-77
2020/12/04 08:00:32;;;;;;;1.85;0.85;;;6.60;99.90;;;;;;4971895;28;20214;-77
2020/12/04 08:03:09;;;;;;;2.25;0.63;;;6.70;99.90;;;;;;4972599;28;20229;-77
2020/12/04 08:05:36;;;;;;;3.05;0.63;;;6.70;99.90;;;;;;4972270;28;20654;-77
2020/12/04 08:08:02;;;;;;;0.90;0.60;;;6.80;99.90;;;;;;4963551;28;20258;-77
2020/12/04 08:10:28;;;;;;;1.73;1.17;;;6.80;99.90;;;;;;4971187;28;20215;-77
2020/12/04 08:12:56;;;;;;;0.87;0.67;;;6.70;99.90;;;;;;4972597;28;20178;-77
2020/12/04 08:15:22;;;;;;;1.38;0.77;;;6.80;99.90;;;;;;4970712;28;20473;-77
2020/12/04 08:17:59;;;;;;;1.20;0.70;;;6.70;99.90;;;;;;4963500;28;20183;-77
2020/12/04 08:20:25;;;;;;;1.17;0.82;;;6.70;99.90;;;;;;4972348;28;20218;-77
2020/12/04 08:22:51;;;;;;;1.57;0.70;;;6.60;99.90;;;;;;4972671;28;20177;-78
2020/12/04 08:25:27;;;;;;;4.03;1.00;;;6.70;99.90;;;;;;4966195;28;21496;-77
2020/12/04 08:27:53;;;;;;;1.17;0.50;;;6.70;99.90;;;;;;4946533;28;20269;-77
2020/12/04 08:30:24;;;;;;;2.47;1.20;;;6.70;99.90;;;;;;4971885;28;20238;-77
2020/12/04 08:32:56;;;;;;;0.85;0.40;;;6.60;99.90;;;;;;4972496;28;20221;-76
2020/12/04 08:35:39;;;;;;;0.50;0.40;;;6.60;99.90;;;;;;4970297;28;20222;-77
2020/12/04 08:38:10;;;;;;;1.83;0.70;;;6.60;99.90;;;;;;4971500;28;20175;-77
2020/12/04 08:40:39;;;;;;;2.78;0.70;;;6.70;99.90;;;;;;4970603;28;20213;-77
2020/12/04 08:43:10;;;;;;;2.25;0.60;;;6.70;99.90;;;;;;4973089;28;20561;-77
2020/12/04 08:45:36;;;;;;;1.80;0.80;;;6.80;99.90;;;;;;4953886;28;20211;-77
2020/12/04 08:48:11;;;;;;;2.83;1.25;;;6.80;99.90;;;;;;4970729;28;20645;-77
2020/12/04 08:50:49;;;;;;;3.35;0.90;;;6.80;99.00;;;;;;4972078;28;20214;-77
2020/12/04 08:53:20;;;;;;;2.90;0.90;;;7.00;98.70;;;;;;4972562;28;20195;-77
2020/12/04 08:55:50;;;;;;;1.58;0.75;;;6.90;99.10;;;;;;4969058;28;20227;-78
2020/12/04 08:58:17;;;;;;;0.90;0.80;;;7.00;98.10;;;;;;4970197;28;20530;-77
2020/12/04 09:00:44;;;;;;;2.45;0.60;;;7.00;99.40;;;;;;4972160;28;20693;-77
2020/12/04 09:03:10;;;;;;;1.27;0.50;;;7.00;99.90;;;;;;4955011;28;20585;-77
2020/12/04 09:05:37;;;;;;;2.25;0.63;;;7.00;99.90;;;;;;4972616;28;20219;-78
2020/12/04 09:08:03;;;;;;;1.42;0.50;;;6.90;99.90;;;;;;4970485;28;20308;-77
2020/12/04 09:10:29;;;;;;;1.10;0.40;;;6.90;99.90;;;;;;4972020;28;20218;-77
2020/12/04 09:12:56;;;;;;;0.83;0.83;;;6.90;99.90;;;;;;4972367;28;20666;-77
2020/12/04 09:15:22;;;;;;;2.63;0.70;;;6.80;99.90;;;;;;4964892;28;20985;-77
2020/12/04 09:17:48;;;;;;;0.80;0.52;;;6.90;99.90;;;;;;4964373;28;20183;-77
2020/12/04 09:20:15;;;;;;;0.70;0.50;;;6.90;99.90;;;;;;4971204;28;20223;-78
2020/12/04 09:22:41;;;;;;;1.58;0.60;;;6.90;99.90;;;;;;4972245;28;20218;-77
2020/12/04 09:25:09;;;;;;;1.98;0.68;;;7.00;99.90;;;;;;4964936;28;20242;-77
2020/12/04 09:27:36;;;;;;;0.60;0.45;;;7.10;99.90;;;;;;4970627;28;20184;-77
2020/12/04 09:30:06;;;;;;;1.13;0.60;;;7.00;99.90;;;;;;4971341;28;20211;-77
2020/12/04 09:32:31;;;;;;;0.93;0.65;;;7.10;99.90;;;;;;4972373;28;20597;-76
2020/12/04 09:34:57;;;;;;;0.70;0.40;;;7.20;99.90;;;;;;4971434;28;20247;-76
2020/12/04 09:37:23;;;;;;;0.90;0.50;;;7.40;99.90;;;;;;4958231;28;20258;-77
2020/12/04 09:39:55;;;;;;;0.97;0.50;;;7.50;99.90;;;;;;4972071;28;21046;-77
2020/12/04 09:42:22;;;;;;;0.88;0.60;;;7.70;99.90;;;;;;4976399;28;20229;-77
2020/12/04 09:44:48;;;;;;;2.08;0.43;;;8.00;99.90;;;;;;4969172;28;20223;-77
2020/12/04 09:47:15;;;;;;;1.23;0.40;;;8.20;99.60;;;;;;4969522;28;20176;-77
2020/12/04 09:49:41;;;;;;;2.25;0.40;;;8.20;99.60;;;;;;4975305;28;20230;-77
2020/12/04 09:52:08;;;;;;;1.60;0.55;;;8.20;98.60;;;;;;4974945;28;20203;-77
2020/12/04 09:54:36;;;;;;;1.58;0.50;;;8.20;96.90;;;;;;4975527;28;20298;-76
2020/12/04 09:57:03;;;;;;;0.68;0.40;;;8.30;96.40;;;;;;4973976;28;20193;-76
2020/12/04 09:59:29;;;;;;;1.13;0.40;;;8.40;94.70;;;;;;4975182;28;20211;-76
2020/12/04 10:01:56;;;;;;;0.90;0.47;;;8.50;96.70;;;;;;4975471;28;20200;-76
2020/12/04 10:04:24;;;;;;;2.92;0.80;;;8.50;94.20;;;;;;4974354;28;20268;-76
2020/12/04 10:06:50;;;;;;;1.95;0.70;;;8.60;94.30;;;;;;4970996;28;20171;-76
2020/12/04 10:09:16;;;;;;;4.93;0.80;;;8.60;96.00;;;;;;4955749;29;20259;-76
2020/12/04 10:11:42;;;;;;;3.13;0.83;;;8.50;96.80;;;;;;4956258;28;20594;-76
2020/12/04 10:14:08;;;;;;;3.00;0.60;;;8.50;96.90;;;;;;4955756;28;20466;-76
2020/12/04 10:16:34;;;;;;;1.98;0.65;;;8.50;96.10;;;;;;4955960;28;21009;-76
2020/12/04 10:19:00;;;;;;;4.70;0.80;;;8.60;95.80;;;;;;4955687;29;20251;-76
2020/12/04 10:21:26;;;;;;;1.90;0.60;;;8.60;96.10;;;;;;4954575;29;20245;-76
2020/12/04 10:23:55;;;;;;;3.72;0.68;;;8.60;96.20;;;;;;4955523;29;20254;-76
2020/12/04 10:26:21;;;;;;;1.88;0.38;;;8.70;95.50;;;;;;4955379;28;20639;-76
2020/12/04 10:28:47;;;;;;;0.50;0.40;;;8.60;93.30;;;;;;4955997;29;20613;-76
2020/12/04 10:31:13;;;;;;;1.30;0.75;;;8.50;95.20;;;;;;4955423;28;20207;-76
2020/12/04 10:33:39;;;;;;;1.90;0.70;;;8.50;94.90;;;;;;4955779;29;20166;-76
2020/12/04 10:36:06;;;;;;;1.00;0.47;;;8.60;98.00;;;;;;4954715;28;20865;-76
2020/12/04 10:38:31;;;;;;;3.22;0.77;;;8.60;95.50;;;;;;4955569;29;20524;-76
2020/12/04 10:40:58;;;;;;;1.57;0.70;;;8.60;95.50;;;;;;4955258;28;20220;-76
2020/12/04 10:43:25;;;;;;;0.67;0.47;;;8.60;95.00;;;;;;4955593;29;20166;-77
2020/12/04 10:45:51;;;;;;;2.10;0.60;;;8.50;96.00;;;;;;4955003;28;20465;-77
2020/12/04 10:48:17;;;;;;;1.58;0.65;;;8.50;96.40;;;;;;4938110;29;20225;-76
2020/12/04 10:50:47;;;;;;;0.80;0.70;;;8.60;93.10;;;;;;4954438;28;20266;-76
2020/12/04 10:53:13;;;;;;;1.95;0.57;;;8.60;95.80;;;;;;4954920;29;20514;-76
2020/12/04 10:55:43;;;;;;;1.42;0.50;;;8.60;96.50;;;;;;4937563;29;20215;-75
2020/12/04 10:58:11;;;;;;;5.53;0.88;;;8.70;94.70;;;;;;4953637;28;20231;-76
2020/12/04 11:00:37;;;;;;;1.10;0.50;;;8.70;96.30;;;;;;4953292;29;20580;-76
2020/12/04 11:03:20;;;;;;;6.03;0.75;;;8.60;95.50;;;;;;4955232;29;20192;-77
2020/12/04 11:05:47;;;;;;;1.70;0.47;;;8.70;95.10;;;;;;4953779;28;20264;-77
2020/12/04 11:08:13;;;;;;;3.80;0.60;;;8.90;94.70;;;;;;4973269;28;20203;-76
2020/12/04 11:10:40;;;;;;;4.70;0.60;;;8.80;93.30;;;;;;4974453;28;20290;-77
2020/12/04 11:13:06;;;;;;;1.17;0.60;;;8.80;94.60;;;;;;4993996;28;20164;-76
2020/12/04 11:15:31;;;;;;;0.80;0.63;;;8.80;94.20;;;;;;4971299;28;20269;-76
2020/12/04 11:17:57;;;;;;;0.87;0.50;;;8.70;93.40;;;;;;4956526;28;20181;-76
2020/12/04 11:20:23;;;;;;;1.83;1.10;;;8.50;94.00;;;;;;4956954;28;20749;-76
2020/12/04 11:22:50;;;;;;;0.80;0.60;;;8.40;94.60;;;;;;4974119;28;20178;-76
2020/12/04 11:25:16;;;;;;;0.93;0.60;;;8.40;94.00;;;;;;4960450;28;20229;-76
2020/12/04 11:27:44;;;;;;;1.98;0.85;;;8.40;94.70;;;;;;4958464;28;20210;-76
2020/12/04 11:30:12;;;;;;;2.00;0.80;;;8.40;94.10;;;;;;4954654;28;20226;-76
2020/12/04 11:32:42;;;;;;;2.08;1.15;;;8.50;94.60;;;;;;4973943;28;20262;-76
2020/12/04 11:35:10;;;;;;;1.10;0.90;;;8.50;94.90;;;;;;4967005;28;20683;-77
2020/12/04 11:37:37;;;;;;;2.28;0.60;;;8.60;93.90;;;;;;4958772;28;20178;-77
2020/12/04 11:40:04;;;;;;;2.90;0.70;;;8.70;93.30;;;;;;4937111;28;20219;-77
2020/12/04 11:42:30;;;;;;;1.48;0.50;;;8.60;93.00;;;;;;4973877;28;20176;-77
2020/12/04 11:44:56;;;;;;;1.20;0.60;;;8.50;94.00;;;;;;4972674;28;20273;-78
2020/12/04 11:47:24;;;;;;;1.50;0.75;;;8.40;94.00;;;;;;4970673;28;20258;-76
2020/12/04 11:49:50;;;;;;;1.05;0.57;;;8.30;93.20;;;;;;4956275;28;20215;-76
2020/12/04 11:52:16;;;;;;;0.80;0.60;;;8.20;93.50;;;;;;4974092;28;20184;-76
2020/12/04 11:54:43;;;;;;;1.52;0.80;;;8.20;93.50;;;;;;4973122;28;20218;-76
2020/12/04 11:57:09;;;;;;;1.02;0.40;;;8.10;93.90;;;;;;4957333;28;20228;-76
2020/12/04 11:59:35;;;;;;;4.90;0.90;;;8.10;93.40;;;;;;4965069;28;20585;-76
2020/12/04 12:02:00;;;;;;;1.00;0.60;;;8.10;94.00;;;;;;4973236;28;20191;-77
2020/12/04 12:04:26;;;;;;;1.90;0.70;;;8.10;94.50;;;;;;4972646;28;20219;-76
2020/12/04 12:06:52;;;;;;;1.30;0.80;;;8.10;93.60;;;;;;4961536;28;20187;-77
2020/12/04 12:09:17;;;;;;;1.63;0.67;;;8.10;93.90;;;;;;4962729;28;20299;-76
2020/12/04 12:11:43;;;;;;;1.67;0.80;;;8.20;93.50;;;;;;4972675;28;20191;-77
2020/12/04 12:14:09;;;;;;;1.10;0.70;;;8.30;94.00;;;;;;4971418;28;20223;-77
2020/12/04 12:16:34;;;;;;;3.03;1.00;;;8.30;93.60;;;;;;4968044;28;20184;-75
2020/12/04 12:19:00;;;;;;;1.03;0.80;;;8.40;93.80;;;;;;4973195;28;20315;-76
2020/12/04 12:21:26;;;;;;;4.43;0.90;;;8.30;93.50;;;;;;4972901;28;20215;-75
2020/12/04 12:23:51;;;;;;;1.87;0.80;;;8.30;93.40;;;;;;4972827;28;20168;-76
2020/12/04 12:26:17;;;;;;;2.07;0.87;;;8.20;93.50;;;;;;4967025;28;20176;-76
2020/12/04 12:28:42;;;;;;;0.80;0.60;;;8.20;93.30;;;;;;4953696;29;20535;-77
2020/12/04 12:31:08;;;;;;;1.73;0.97;;;8.20;93.40;;;;;;4958076;28;20215;-77
2020/12/04 12:33:34;;;;;;;2.30;1.00;;;8.10;93.10;;;;;;4969834;28;20254;-77
2020/12/04 12:35:59;;;;;;;2.47;0.90;;;8.10;92.60;;;;;;4952584;28;20766;-76
2020/12/04 12:38:25;;;;;;;4.40;1.17;;;8.10;93.60;;;;;;4968250;28;20274;-76
2020/12/04 12:40:51;;;;;;;1.13;0.47;;;8.10;93.10;;;;;;4954663;28;20223;-77
2020/12/04 12:43:17;;;;;;;0.90;0.50;;;8.10;93.70;;;;;;4971959;28;20197;-77
2020/12/04 12:45:43;;;;;;;1.92;0.90;;;8.10;93.90;;;;;;4971728;28;20218;-77
2020/12/04 12:48:08;;;;;;;1.57;0.80;;;8.10;94.70;;;;;;4966279;28;20688;-78
2020/12/04 12:50:34;;;;;;;0.80;0.50;;;8.10;94.20;;;;;;4972261;28;20223;-76
2020/12/04 12:53:00;;;;;;;0.50;0.37;;;8.20;93.30;;;;;;4972695;28;20203;-76
2020/12/04 12:55:26;;;;;;;0.90;0.77;;;8.30;94.00;;;;;;4967987;28;20266;-76
2020/12/04 12:57:51;;;;;;;0.60;0.40;;;8.20;94.40;;;;;;4961958;28;20420;-77
2020/12/04 13:00:17;;;;;;;1.93;0.83;;;8.20;94.20;;;;;;4972110;28;20711;-77